createdAt,value
2023-05-22T00:02:11.805Z,101794.75
2023-05-22T00:04:38.790Z,101790.00
2023-05-22T00:07:06.759Z,101792.31
2023-05-22T00:09:33.541Z,101793.34
2023-05-22T00:12:00.566Z,101791.75
2023-05-22T00:14:27.285Z,101796.94
2023-05-22T00:16:55.505Z,101801.25
2023-05-22T00:19:23.360Z,101795.53
2023-05-22T00:21:51.455Z,101794.41
2023-05-22T00:24:18.286Z,101800.44
2023-05-22T00:26:45.907Z,101798.09
2023-05-22T00:29:12.781Z,101790.09
2023-05-22T00:31:40.651Z,101797.63
2023-05-22T00:34:07.431Z,101794.84
2023-05-22T00:36:34.272Z,101794.97
2023-05-22T00:39:01.114Z,101786.50
2023-05-22T00:41:27.936Z,101794.41
2023-05-22T00:43:54.856Z,101784.41
2023-05-22T00:46:23.010Z,101794.84
2023-05-22T00:48:50.197Z,101797.88
2023-05-22T00:51:17.033Z,101792.16
2023-05-22T00:53:44.659Z,101781.75
2023-05-22T00:56:12.514Z,101791.38
2023-05-22T00:58:43.571Z,101789.75
2023-05-22T01:01:11.727Z,101792.53
2023-05-22T01:03:45.967Z,101793.00
2023-05-22T01:06:18.088Z,101788.09
2023-05-22T01:08:44.959Z,101785.69
2023-05-22T01:11:39.985Z,101784.53
2023-05-22T01:14:12.755Z,101781.84
2023-05-22T01:16:59.870Z,101782.44
2023-05-22T01:19:54.104Z,101790.66
2023-05-22T01:22:40.990Z,101781.84
2023-05-22T01:25:32.623Z,101779.28
2023-05-22T01:28:18.311Z,101787.66
2023-05-22T01:30:59.260Z,101787.19
2023-05-22T01:33:28.903Z,101785.53
2023-05-22T01:36:00.007Z,101785.69
2023-05-22T01:38:27.428Z,101790.44
2023-05-22T01:40:54.277Z,101788.81
2023-05-22T01:43:21.455Z,101795.09
2023-05-22T01:45:48.449Z,101791.81
2023-05-22T01:48:15.225Z,101796.00
2023-05-22T01:50:42.467Z,101791.81
2023-05-22T01:53:24.218Z,101799.34
2023-05-22T01:56:05.818Z,101788.56
2023-05-22T01:58:44.943Z,101801.53
2023-05-22T02:01:14.478Z,101797.44
2023-05-22T02:03:42.609Z,101798.13
2023-05-22T02:06:13.561Z,101790.13
2023-05-22T02:08:41.952Z,101792.44
2023-05-22T02:11:11.220Z,101795.56
2023-05-22T02:13:38.585Z,101797.53
2023-05-22T02:16:06.577Z,101803.81
2023-05-22T02:18:33.820Z,101809.78
2023-05-22T02:21:01.271Z,101805.25
2023-05-22T02:23:29.817Z,101799.53
2023-05-22T02:25:57.141Z,101808.13
2023-05-22T02:28:24.354Z,101799.28
2023-05-22T02:30:51.335Z,101800.66
2023-05-22T02:33:18.758Z,101800.75
2023-05-22T02:35:46.111Z,101806.66
2023-05-22T02:38:13.148Z,101800.16
2023-05-22T02:40:40.662Z,101806.41
2023-05-22T02:43:08.216Z,101812.63
2023-05-22T02:45:35.018Z,101825.41
2023-05-22T02:48:03.806Z,101814.50
2023-05-22T02:50:30.854Z,101815.16
2023-05-22T02:52:57.589Z,101819.91
2023-05-22T02:55:24.403Z,101823.00
2023-05-22T02:57:51.198Z,101821.88
2023-05-22T03:02:53.384Z,101815.00
2023-05-22T03:05:20.393Z,101819.16
2023-05-22T03:07:48.745Z,101819.81
2023-05-22T03:10:16.358Z,101814.59
2023-05-22T03:12:43.084Z,101812.50
2023-05-22T03:15:11.158Z,101812.50
2023-05-22T03:17:37.936Z,101819.69
2023-05-22T03:20:05.518Z,101819.41
2023-05-22T03:22:32.467Z,101819.13
2023-05-22T03:24:59.249Z,101823.25
2023-05-22T03:27:25.992Z,101821.97
2023-05-22T03:29:52.772Z,101826.22
2023-05-22T03:32:19.611Z,101833.16
2023-05-22T03:34:46.412Z,101823.03
2023-05-22T03:37:13.212Z,101824.47
2023-05-22T03:39:40.125Z,101833.03
2023-05-22T03:42:06.916Z,101830.25
2023-05-22T03:44:33.665Z,101838.78
2023-05-22T03:47:00.367Z,101841.75
2023-05-22T03:49:27.076Z,101838.69
2023-05-22T03:51:53.832Z,101843.59
2023-05-22T03:54:20.591Z,101843.91
2023-05-22T03:56:47.411Z,101838.56
2023-05-22T03:59:14.232Z,101841.50
2023-05-22T04:01:41.355Z,101851.34
2023-05-22T04:04:09.655Z,101849.69
2023-05-22T04:06:43.271Z,101849.69
2023-05-22T04:09:13.488Z,101858.72
2023-05-22T04:11:40.282Z,101845.00
2023-05-22T04:14:07.097Z,101855.13
2023-05-22T04:16:34.304Z,101862.00
2023-05-22T04:19:04.573Z,101850.56
2023-05-22T04:21:34.361Z,101851.34
2023-05-22T04:24:07.446Z,101856.72
2023-05-22T04:26:34.538Z,101855.13
2023-05-22T04:29:01.372Z,101861.31
2023-05-22T04:31:28.704Z,101857.25
2023-05-22T04:33:56.155Z,101860.84
2023-05-22T04:36:26.279Z,101861.66
2023-05-22T04:38:54.166Z,101865.41
2023-05-22T04:41:22.801Z,101874.91
2023-05-22T04:43:49.943Z,101874.41
2023-05-22T04:46:16.779Z,101868.06
2023-05-22T04:48:43.608Z,101872.81
2023-05-22T04:51:10.570Z,101873.75
2023-05-22T04:53:38.848Z,101878.00
2023-05-22T04:56:06.611Z,101875.69
2023-05-22T04:58:33.486Z,101885.66
2023-05-22T05:01:00.338Z,101885.66
2023-05-22T05:03:27.423Z,101889.75
2023-05-22T05:05:54.821Z,101898.28
2023-05-22T05:08:21.563Z,101904.00
2023-05-22T05:10:48.467Z,101906.13
2023-05-22T05:13:15.174Z,101909.03
2023-05-22T05:15:41.939Z,101908.72
2023-05-22T05:18:08.740Z,101907.41
2023-05-22T05:20:36.146Z,101901.03
2023-05-22T05:23:02.921Z,101898.75
2023-05-22T05:25:29.716Z,101902.81
2023-05-22T05:27:57.718Z,101925.03
2023-05-22T05:30:24.459Z,101919.31
2023-05-22T05:32:51.258Z,101921.16
2023-05-22T05:35:18.089Z,101924.41
2023-05-22T05:37:44.857Z,101920.03
2023-05-22T05:40:12.206Z,101930.66
2023-05-22T05:42:39.072Z,101934.06
2023-05-22T05:45:06.093Z,101923.44
2023-05-22T05:47:33.043Z,101926.41
2023-05-22T05:50:00.902Z,101928.19
2023-05-22T05:52:32.635Z,101923.56
2023-05-22T05:55:01.011Z,101923.56
2023-05-22T05:57:28.935Z,101930.91
2023-05-22T05:59:55.629Z,101930.72
2023-05-22T06:02:22.478Z,101928.63
2023-05-22T06:04:49.373Z,101931.88
2023-05-22T06:07:16.534Z,101934.00
2023-05-22T06:09:43.268Z,101941.69
2023-05-22T06:12:13.295Z,101944.28
2023-05-22T06:14:43.115Z,101945.59
2023-05-22T06:17:10.108Z,101947.84
2023-05-22T06:19:37.488Z,101954.41
2023-05-22T06:22:04.395Z,101953.28
2023-05-22T06:24:34.176Z,101953.63
2023-05-22T06:27:02.566Z,101953.81
2023-05-22T06:29:29.357Z,101950.34
2023-05-22T06:31:56.591Z,101959.03
2023-05-22T06:34:25.936Z,101954.78
2023-05-22T06:36:52.733Z,101964.88
2023-05-22T06:39:19.613Z,101969.47
2023-05-22T06:41:46.412Z,101967.19
2023-05-22T06:44:13.404Z,101957.00
2023-05-22T06:46:40.374Z,101958.81
2023-05-22T06:49:07.643Z,101966.66
2023-05-22T06:51:34.539Z,101968.13
2023-05-22T06:54:01.488Z,101971.53
2023-05-22T06:56:28.302Z,101965.97
2023-05-22T06:58:55.122Z,101971.88
2023-05-22T07:01:21.992Z,101966.47
2023-05-22T07:03:48.768Z,101974.13
2023-05-22T07:06:16.750Z,101966.28
2023-05-22T07:08:43.839Z,101964.31
2023-05-22T07:11:10.537Z,101972.66
2023-05-22T07:13:37.539Z,101974.22
2023-05-22T07:16:04.541Z,101975.78
2023-05-22T07:18:31.470Z,101984.72
2023-05-22T07:20:58.758Z,101983.84
2023-05-22T07:23:26.301Z,101987.38
2023-05-22T07:25:53.337Z,101985.50
2023-05-22T07:28:20.380Z,101989.59
2023-05-22T07:30:48.175Z,101990.53
2023-05-22T07:33:14.973Z,101997.38
2023-05-22T07:35:41.760Z,101999.66
2023-05-22T07:38:08.527Z,101999.66
2023-05-22T07:40:35.291Z,101998.63
2023-05-22T07:43:01.981Z,102004.75
2023-05-22T07:45:28.760Z,102005.66
2023-05-22T07:47:56.451Z,102003.34
2023-05-22T07:50:23.322Z,102006.06
2023-05-22T07:52:50.075Z,102011.25
2023-05-22T07:55:17.979Z,102002.88
2023-05-22T07:57:45.039Z,102008.03
2023-05-22T08:00:17.084Z,102014.13
2023-05-22T08:02:44.133Z,102021.25
2023-05-22T08:05:12.270Z,102026.94
2023-05-22T08:07:39.146Z,102039.03
2023-05-22T08:10:14.999Z,102039.00
2023-05-22T08:12:41.854Z,102039.06
2023-05-22T08:15:09.151Z,102041.09
2023-05-22T08:17:36.185Z,102036.34
2023-05-22T08:20:03.261Z,102044.72
2023-05-22T08:22:31.207Z,102046.09
2023-05-22T08:24:57.936Z,102035.25
2023-05-22T08:27:24.757Z,102035.41
2023-05-22T08:29:52.402Z,102040.88
2023-05-22T08:32:19.176Z,102046.75
2023-05-22T08:34:46.316Z,102037.78
2023-05-22T08:37:15.115Z,102048.72
2023-05-22T08:39:42.034Z,102042.31
2023-05-22T08:42:08.958Z,102045.22
2023-05-22T08:44:35.949Z,102041.84
2023-05-22T08:47:05.346Z,102044.38
2023-05-22T08:49:32.310Z,102042.31
2023-05-22T08:52:13.179Z,102037.69
2023-05-22T08:54:43.598Z,102037.00
2023-05-22T08:57:11.021Z,102033.56
2023-05-22T08:59:40.990Z,102048.38
2023-05-22T09:02:09.830Z,102045.94
2023-05-22T09:04:36.708Z,102039.50
2023-05-22T09:07:05.976Z,102046.16
2023-05-22T09:09:42.029Z,102050.31
2023-05-22T09:12:10.594Z,102044.47
2023-05-22T09:14:41.450Z,102044.84
2023-05-22T09:17:11.530Z,102059.50
2023-05-22T09:19:39.129Z,102047.41
2023-05-22T09:22:06.524Z,102040.81
2023-05-22T09:24:43.637Z,102030.91
2023-05-22T09:27:23.330Z,102035.41
2023-05-22T09:29:56.922Z,102030.59
2023-05-22T09:32:24.875Z,102038.16
2023-05-22T09:34:51.632Z,102042.72
2023-05-22T09:37:18.744Z,102036.91
2023-05-22T09:39:47.618Z,102034.94
2023-05-22T09:42:18.248Z,102038.94
2023-05-22T09:44:49.449Z,102042.09
2023-05-22T09:47:16.204Z,102025.31
2023-05-22T09:49:44.141Z,102034.16
2023-05-22T09:52:12.754Z,102031.56
2023-05-22T09:54:55.365Z,102027.22
2023-05-22T09:57:25.690Z,102023.72
2023-05-22T09:59:55.080Z,102021.34
2023-05-22T10:02:23.878Z,102018.31
2023-05-22T10:04:51.536Z,102019.16
2023-05-22T10:07:37.780Z,102024.75
2023-05-22T10:10:09.232Z,102025.53
2023-05-22T10:12:43.517Z,102020.84
2023-05-22T10:15:11.726Z,102030.91
2023-05-22T10:17:39.764Z,102033.03
2023-05-22T10:20:09.039Z,102050.97
2023-05-22T10:22:40.620Z,102050.00
2023-05-22T10:25:10.446Z,102039.97
2023-05-22T10:27:38.313Z,102047.56
2023-05-22T10:30:32.912Z,102045.34
2023-05-22T10:33:18.277Z,102045.97
2023-05-22T10:35:55.483Z,102040.25
2023-05-22T10:38:33.186Z,102052.75
2023-05-22T10:41:01.607Z,102043.31
2023-05-22T10:43:31.781Z,102036.66
2023-05-22T10:46:04.192Z,102041.50
2023-05-22T10:48:38.424Z,102035.25
2023-05-22T10:51:07.034Z,102035.78
2023-05-22T10:53:34.894Z,102037.06
2023-05-22T10:56:12.861Z,102035.47
2023-05-22T10:58:41.613Z,102048.50
2023-05-22T11:01:11.858Z,102045.97
2023-05-22T11:04:00.876Z,102039.63
2023-05-22T11:06:35.983Z,102042.88
2023-05-22T11:09:28.459Z,102048.28
2023-05-22T11:12:13.760Z,102036.91
2023-05-22T11:14:56.856Z,102032.91
2023-05-22T11:17:29.165Z,102021.41
2023-05-22T11:19:59.936Z,102018.69
2023-05-22T11:22:41.313Z,102027.16
2023-05-22T11:25:28.473Z,102025.97
2023-05-22T11:27:56.503Z,102015.47
2023-05-22T11:30:28.566Z,102013.19
2023-05-22T11:32:57.464Z,102012.59
2023-05-22T11:35:24.963Z,102018.91
2023-05-22T11:37:53.192Z,102013.94
2023-05-22T11:40:21.765Z,102016.97
2023-05-22T11:42:48.582Z,102017.84
2023-05-22T11:45:15.804Z,102024.69
2023-05-22T11:47:43.839Z,102024.19
2023-05-22T11:50:13.542Z,102030.25
2023-05-22T11:52:43.205Z,102019.00
2023-05-22T11:55:11.378Z,102025.31
2023-05-22T11:57:38.881Z,102021.44
2023-05-22T12:00:08.526Z,102024.91
2023-05-22T12:02:36.120Z,102027.69
2023-05-22T12:05:05.997Z,102028.88
2023-05-22T12:07:32.978Z,102025.63
2023-05-22T12:10:01.314Z,102014.97
2023-05-22T12:12:28.367Z,102018.84
2023-05-22T12:14:55.162Z,102009.19
2023-05-22T12:17:23.107Z,102011.94
2023-05-22T12:19:49.881Z,102017.78
2023-05-22T12:22:16.726Z,102021.72
2023-05-22T12:24:47.324Z,102030.97
2023-05-22T12:27:15.278Z,102032.75
2023-05-22T12:29:43.791Z,102023.34
2023-05-22T12:32:12.380Z,102022.81
2023-05-22T12:34:47.009Z,102019.75
2023-05-22T12:37:25.162Z,102019.88
2023-05-22T12:40:00.008Z,102013.31
2023-05-22T12:42:28.017Z,102018.22
2023-05-22T12:44:56.543Z,102020.00
2023-05-22T12:47:24.875Z,102026.50
2023-05-22T12:49:51.805Z,102021.38
2023-05-22T12:52:18.721Z,102022.84
2023-05-22T12:54:45.604Z,102026.16
2023-05-22T12:57:12.506Z,102035.09
2023-05-22T12:59:39.341Z,102040.06
2023-05-22T13:02:06.556Z,102033.63
2023-05-22T13:04:34.006Z,102022.97
2023-05-22T13:07:01.004Z,102021.84
2023-05-22T13:09:29.767Z,102025.41
2023-05-22T13:11:56.627Z,102026.78
2023-05-22T13:14:23.478Z,102035.63
2023-05-22T13:16:50.229Z,102042.19
2023-05-22T13:19:17.185Z,102047.25
2023-05-22T13:21:44.234Z,102039.09
2023-05-22T13:24:11.139Z,102043.97
2023-05-22T13:26:38.103Z,102057.47
2023-05-22T13:29:05.045Z,102043.28
2023-05-22T13:31:37.529Z,102044.78
2023-05-22T13:34:05.400Z,102040.25
2023-05-22T13:36:32.721Z,102031.59
2023-05-22T13:38:59.547Z,102031.69
2023-05-22T13:41:26.569Z,102038.06
2023-05-22T13:43:53.457Z,102035.97
2023-05-22T13:46:22.068Z,102049.69
2023-05-22T13:48:48.877Z,102049.53
2023-05-22T13:51:15.808Z,102050.19
2023-05-22T13:53:42.594Z,102048.53
2023-05-22T13:56:09.304Z,102051.13
2023-05-22T13:58:36.119Z,102054.47
2023-05-22T14:01:02.910Z,102053.66
2023-05-22T14:03:29.787Z,102066.00
2023-05-22T14:05:56.624Z,102058.97
2023-05-22T14:08:24.940Z,102058.78
2023-05-22T14:10:51.810Z,102060.72
2023-05-22T14:13:18.853Z,102073.78
2023-05-22T14:15:47.118Z,102060.75
2023-05-22T14:18:14.682Z,102057.16
2023-05-22T14:20:41.545Z,102058.13
2023-05-22T14:23:15.177Z,102044.88
2023-05-22T14:25:43.214Z,102055.31
2023-05-22T14:28:16.943Z,102050.44
2023-05-22T14:30:43.769Z,102057.22
2023-05-22T14:33:11.427Z,102063.44
2023-05-22T14:35:38.478Z,102057.16
2023-05-22T14:38:05.561Z,102058.38
2023-05-22T14:40:32.331Z,102054.03
2023-05-22T14:42:59.093Z,102053.28
2023-05-22T14:45:25.806Z,102059.56
2023-05-22T14:47:52.538Z,102058.47
2023-05-22T14:50:20.797Z,102058.53
2023-05-22T14:52:50.154Z,102051.81
2023-05-22T14:55:17.630Z,102046.59
2023-05-22T14:57:44.929Z,102061.00
2023-05-22T15:00:12.544Z,102053.59
2023-05-22T15:02:39.625Z,102053.56
2023-05-22T15:05:07.330Z,102058.22
2023-05-22T15:10:05.331Z,102049.75
2023-05-22T15:12:32.604Z,102044.13
2023-05-22T15:14:59.437Z,102059.41
2023-05-22T15:17:26.448Z,102058.25
2023-05-22T15:19:53.221Z,102058.22
2023-05-22T15:22:20.328Z,102046.38
2023-05-22T15:24:48.275Z,102050.13
2023-05-22T15:27:15.087Z,102053.03
2023-05-22T15:29:42.058Z,102052.16
2023-05-22T15:32:09.282Z,102057.22
2023-05-22T15:34:36.189Z,102055.16
2023-05-22T15:37:02.953Z,102070.75
2023-05-22T15:39:29.787Z,102061.13
2023-05-22T15:42:05.828Z,102057.25
2023-05-22T15:44:33.718Z,102056.72
2023-05-22T15:47:00.525Z,102060.72
2023-05-22T15:49:30.164Z,102070.31
2023-05-22T15:51:58.588Z,102065.03
2023-05-22T15:54:25.490Z,102062.31
2023-05-22T15:56:52.270Z,102054.78
2023-05-22T15:59:19.030Z,102060.97
2023-05-22T16:01:45.961Z,102055.59
2023-05-22T16:04:12.826Z,102062.34
2023-05-22T16:06:39.589Z,102063.78
2023-05-22T16:09:06.436Z,102060.41
2023-05-22T16:11:37.775Z,102067.84
2023-05-22T16:14:05.646Z,102054.03
2023-05-22T16:16:32.661Z,102070.66
2023-05-22T16:18:59.587Z,102052.28
2023-05-22T16:21:26.390Z,102060.00
2023-05-22T16:23:53.157Z,102073.13
2023-05-22T16:26:19.991Z,102063.25
2023-05-22T16:28:46.772Z,102062.31
2023-05-22T16:31:17.047Z,102072.00
2023-05-22T16:33:45.830Z,102073.78
2023-05-22T16:36:12.566Z,102068.28
2023-05-22T16:38:39.354Z,102064.97
2023-05-22T16:41:06.189Z,102072.31
2023-05-22T16:43:32.942Z,102074.06
2023-05-22T16:45:59.738Z,102057.34
2023-05-22T16:48:26.523Z,102064.34
2023-05-22T16:50:53.394Z,102063.34
2023-05-22T16:53:20.229Z,102070.81
2023-05-22T16:55:46.957Z,102061.22
2023-05-22T16:58:14.135Z,102054.75
2023-05-22T17:00:41.526Z,102056.16
2023-05-22T17:03:09.843Z,102052.69
2023-05-22T17:05:37.529Z,102056.28
2023-05-22T17:08:04.484Z,102053.31
2023-05-22T17:10:31.299Z,102049.53
2023-05-22T17:12:58.107Z,102046.97
2023-05-22T17:15:25.208Z,102048.09
2023-05-22T17:17:52.096Z,102056.47
2023-05-22T17:20:19.083Z,102058.16
2023-05-22T17:22:45.874Z,102046.16
2023-05-22T17:25:13.522Z,102056.25
2023-05-22T17:27:40.695Z,102057.25
2023-05-22T17:30:08.514Z,102060.06
2023-05-22T17:32:35.752Z,102052.38
2023-05-22T17:35:02.815Z,102053.69
2023-05-22T17:37:29.612Z,102057.66
2023-05-22T17:39:56.425Z,102054.44
2023-05-22T17:42:23.321Z,102050.34
2023-05-22T17:44:50.108Z,102053.41
2023-05-22T17:47:18.379Z,102054.16
2023-05-22T17:49:45.155Z,102061.22
2023-05-22T17:52:13.241Z,102061.22
2023-05-22T17:54:40.051Z,102070.41
2023-05-22T17:57:07.134Z,102075.38
2023-05-22T17:59:35.749Z,102073.59
2023-05-22T18:02:04.651Z,102073.72
2023-05-22T18:04:31.504Z,102078.78
2023-05-22T18:06:58.277Z,102076.28
2023-05-22T18:09:25.200Z,102081.81
2023-05-22T18:11:53.125Z,102077.75
2023-05-22T18:14:20.516Z,102076.41
2023-05-22T18:16:47.331Z,102084.84
2023-05-22T18:19:14.468Z,102085.56
2023-05-22T18:21:41.804Z,102085.81
2023-05-22T18:24:08.920Z,102086.03
2023-05-22T18:26:35.794Z,102086.69
2023-05-22T18:29:02.565Z,102095.78
2023-05-22T18:31:30.712Z,102089.72
2023-05-22T18:33:57.543Z,102084.31
2023-05-22T18:36:24.474Z,102083.19
2023-05-22T18:38:51.277Z,102089.34
2023-05-22T18:41:18.125Z,102092.72
2023-05-22T18:43:44.938Z,102091.84
2023-05-22T18:46:11.805Z,102094.25
2023-05-22T18:48:38.610Z,102099.78
2023-05-22T18:51:05.457Z,102097.97
2023-05-22T18:53:32.335Z,102095.88
2023-05-22T18:55:59.208Z,102109.84
2023-05-22T18:58:26.880Z,102104.84
2023-05-22T19:00:55.786Z,102107.88
2023-05-22T19:03:23.975Z,102108.38
2023-05-22T19:05:50.859Z,102119.03
2023-05-22T19:08:17.700Z,102113.66
2023-05-22T19:10:44.613Z,102110.56
2023-05-22T19:13:11.450Z,102108.22
2023-05-22T19:15:38.604Z,102115.84
2023-05-22T19:18:05.584Z,102110.41
2023-05-22T19:20:32.484Z,102115.81
2023-05-22T19:22:59.344Z,102119.59
2023-05-22T19:25:26.316Z,102123.91
2023-05-22T19:27:53.129Z,102130.31
2023-05-22T19:30:21.989Z,102130.78
2023-05-22T19:32:55.943Z,102127.06
2023-05-22T19:35:22.831Z,102131.28
2023-05-22T19:37:50.301Z,102137.59
2023-05-22T19:40:17.179Z,102139.91
2023-05-22T19:42:44.322Z,102145.31
2023-05-22T19:45:11.336Z,102144.19
2023-05-22T19:47:38.149Z,102143.97
2023-05-22T19:50:05.499Z,102150.66
2023-05-22T19:52:32.307Z,102152.03
2023-05-22T19:54:59.026Z,102148.56
2023-05-22T19:57:27.238Z,102156.03
2023-05-22T19:59:54.710Z,102165.47
2023-05-22T20:02:21.881Z,102160.56
2023-05-22T20:04:49.299Z,102159.53
2023-05-22T20:07:16.621Z,102158.22
2023-05-22T20:09:43.387Z,102167.19
2023-05-22T20:12:11.298Z,102178.16
2023-05-22T20:14:38.768Z,102170.72
2023-05-22T20:17:05.762Z,102168.25
2023-05-22T20:19:34.612Z,102178.97
2023-05-22T20:22:02.194Z,102178.25
2023-05-22T20:24:29.712Z,102179.66
2023-05-22T20:26:57.037Z,102191.50
2023-05-22T20:29:23.823Z,102194.06
2023-05-22T20:31:54.698Z,102187.88
2023-05-22T20:34:22.260Z,102193.34
2023-05-22T20:36:49.153Z,102198.69
2023-05-22T20:39:16.427Z,102206.47
2023-05-22T20:41:43.198Z,102190.41
2023-05-22T20:44:10.724Z,102195.84
2023-05-22T20:46:37.539Z,102213.97
2023-05-22T20:49:05.270Z,102215.00
2023-05-22T20:51:32.807Z,102216.03
2023-05-22T20:54:00.357Z,102211.09
2023-05-22T20:56:27.729Z,102216.91
2023-05-22T20:58:55.888Z,102210.03
2023-05-22T21:01:23.644Z,102209.78
2023-05-22T21:03:51.863Z,102218.31
2023-05-22T21:06:19.520Z,102219.56
2023-05-22T21:08:46.356Z,102219.97
2023-05-22T21:11:13.303Z,102225.09
2023-05-22T21:13:40.092Z,102220.19
2023-05-22T21:16:07.187Z,102229.69
2023-05-22T21:18:34.131Z,102234.66
2023-05-22T21:21:01.005Z,102235.31
2023-05-22T21:23:27.843Z,102242.41
2023-05-22T21:25:54.617Z,102231.91
2023-05-22T21:28:21.338Z,102229.81
2023-05-22T21:30:49.883Z,102236.41
2023-05-22T21:33:16.838Z,102235.28
2023-05-22T21:35:44.685Z,102233.69
2023-05-22T21:38:11.468Z,102233.19
2023-05-22T21:40:40.691Z,102240.59
2023-05-22T21:43:07.744Z,102250.75
2023-05-22T21:45:34.886Z,102232.63
2023-05-22T21:48:01.916Z,102237.22
2023-05-22T21:50:29.647Z,102231.63
2023-05-22T21:52:56.664Z,102236.59
2023-05-22T21:55:25.644Z,102240.38
2023-05-22T21:57:52.374Z,102239.91
2023-05-22T22:00:19.373Z,102244.84
2023-05-22T22:02:46.282Z,102249.28
2023-05-22T22:05:13.754Z,102249.78
2023-05-22T22:07:40.590Z,102238.50
2023-05-22T22:10:07.924Z,102249.13
2023-05-22T22:12:34.679Z,102258.00
2023-05-22T22:15:02.562Z,102258.50
2023-05-22T22:17:30.481Z,102255.91
2023-05-22T22:19:57.365Z,102250.34
2023-05-22T22:22:25.026Z,102257.22
2023-05-22T22:24:51.871Z,102254.97
2023-05-22T22:27:19.799Z,102266.28
2023-05-22T22:29:47.067Z,102262.00
2023-05-22T22:32:13.993Z,102264.31
2023-05-22T22:34:42.100Z,102254.66
2023-05-22T22:37:09.070Z,102257.09
2023-05-22T22:39:35.784Z,102262.53
2023-05-22T22:42:05.212Z,102259.88
2023-05-22T22:44:32.318Z,102260.41
2023-05-22T22:46:59.391Z,102256.97
2023-05-22T22:49:26.164Z,102253.88
2023-05-22T22:51:53.580Z,102266.78
2023-05-22T22:54:20.945Z,102256.28
2023-05-22T22:56:49.876Z,102261.38
2023-05-22T22:59:16.989Z,102265.97
2023-05-22T23:01:44.080Z,102259.88
2023-05-22T23:04:11.235Z,102274.97
2023-05-22T23:06:38.196Z,102269.56
2023-05-22T23:09:05.014Z,102273.47
2023-05-22T23:11:37.538Z,102272.34
2023-05-22T23:14:08.518Z,102271.69
2023-05-22T23:16:40.876Z,102274.28
2023-05-22T23:19:09.346Z,102281.91
2023-05-22T23:21:36.942Z,102290.13
2023-05-22T23:24:04.924Z,102277.00
2023-05-22T23:26:32.559Z,102278.47
2023-05-22T23:29:00.121Z,102275.22
2023-05-22T23:31:30.344Z,102278.47
2023-05-22T23:33:58.211Z,102282.72
2023-05-22T23:36:25.663Z,102287.13
2023-05-22T23:38:53.592Z,102285.00
2023-05-22T23:41:20.402Z,102279.28
2023-05-22T23:43:47.488Z,102285.63
2023-05-22T23:46:14.818Z,102289.09
2023-05-22T23:48:42.491Z,102278.09
2023-05-22T23:51:10.080Z,102282.66
2023-05-22T23:53:37.170Z,102281.69
2023-05-22T23:56:04.695Z,102291.44
2023-05-22T23:58:32.261Z,102290.31
